Time;durP1;ratioP1;P1;durP2;ratioP2;P2;SDS_P1;SDS_P2;PMS_P1;PMS_P2;Temp;Humidity;BMP_temperature;BMP_pressure;BME280_temperature;BME280_humidity;BME280_pressure;Samples;Min_cycle;Max_cycle;Signal;HPM_P1;HPM_P2
2023/05/14 00:02:13;;;;;;;;;;;;;;;23.76;26.05;98628.09;5051848;28;19967;-88
2023/05/14 00:04:39;;;;;;;;;;;;;;;23.98;25.69;98626.63;5030838;28;20273;-88
2023/05/14 00:07:05;;;;;;;;;;;;;;;24.37;25.20;98617.69;5053742;28;19968;-88
2023/05/14 00:09:31;;;;;;;;;;;;;;;24.07;25.60;98621.31;5047777;28;19952;-88
2023/05/14 00:11:57;;;;;;;;;;;;;;;24.05;25.47;98615.31;5046156;28;19924;-88
2023/05/14 00:14:23;;;;;;;;;;;;;;;23.32;26.53;98617.75;5051430;28;19920;-87
2023/05/14 00:16:50;;;;;;;;;;;;;;;23.34;26.84;98621.75;5048650;28;19959;-88
2023/05/14 00:19:16;;;;;;;;;;;;;;;23.77;26.20;98612.88;5036174;28;19921;-88
2023/05/14 00:21:42;;;;;;;;;;;;;;;23.70;26.19;98616.56;5032404;28;19924;-88
2023/05/14 00:24:08;;;;;;;;;;;;;;;23.64;26.10;98623.06;5052835;28;20019;-87
2023/05/14 00:26:34;;;;;;;;;;;;;;;23.75;26.20;98618.91;5050975;28;19928;-87
2023/05/14 00:29:00;;;;;;;;;;;;;;;23.90;25.98;98625.91;5058471;28;19963;-88
2023/05/14 00:31:26;;;;;;;;;;;;;;;24.35;25.22;98623.75;5051657;28;19928;-88
2023/05/14 00:33:52;;;;;;;;;;;;;;;24.66;24.64;98621.69;5051132;28;20008;-88
2023/05/14 00:36:18;;;;;;;;;;;;;;;24.55;24.72;98621.06;5043489;28;20420;-88
2023/05/14 00:38:44;;;;;;;;;;;;;;;24.39;25.13;98618.84;5029513;28;19956;-87
2023/05/14 00:41:10;;;;;;;;;;;;;;;24.04;25.51;98624.94;5045235;28;19932;-88
2023/05/14 00:43:37;;;;;;;;;;;;;;;23.93;26.15;98624.28;5031240;28;19927;-88
2023/05/14 00:46:03;;;;;;;;;;;;;;;23.84;26.29;98619.19;5054937;28;19921;-87
2023/05/14 00:48:29;;;;;;;;;;;;;;;23.88;26.03;98628.34;5072955;28;19923;-88
2023/05/14 00:50:55;;;;;;;;;;;;;;;23.70;26.10;98626.97;5073187;28;19921;-88
2023/05/14 00:53:21;;;;;;;;;;;;;;;24.03;25.73;98626.97;5071142;28;20003;-88
2023/05/14 00:55:48;;;;;;;;;;;;;;;24.48;25.11;98629.59;5054208;28;20423;-88
2023/05/14 00:58:14;;;;;;;;;;;;;;;24.82;24.56;98621.03;5069625;28;19920;-88
2023/05/14 01:00:41;;;;;;;;;;;;;;;24.80;24.48;98629.91;5073248;28;19920;-88
2023/05/14 01:03:07;;;;;;;;;;;;;;;24.38;25.06;98630.53;5048343;28;20321;-88
2023/05/14 01:05:36;;;;;;;;;;;;;;;24.00;25.31;98625.00;5060280;28;22350;-88
2023/05/14 01:08:08;;;;;;;;;;;;;;;24.52;24.95;98630.31;5046877;28;19955;-88
2023/05/14 01:10:57;;;;;;;;;;;;;;;24.17;25.25;98622.41;5074532;28;19975;-88
2023/05/14 01:13:26;;;;;;;;;;;;;;;23.35;26.60;98623.34;5068508;28;19920;-88
2023/05/14 01:15:54;;;;;;;;;;;;;;;23.87;25.71;98620.38;5081416;28;19990;-88
2023/05/14 01:18:20;;;;;;;;;;;;;;;23.71;26.31;98623.75;5064552;28;19928;-88
2023/05/14 01:20:49;;;;;;;;;;;;;;;24.06;25.58;98622.56;5088845;28;19920;-88
2023/05/14 01:23:15;;;;;;;;;;;;;;;24.39;25.20;98620.88;5071767;28;19927;-88
2023/05/14 01:25:41;;;;;;;;;;;;;;;24.70;24.63;98616.78;5082821;28;19925;-87
2023/05/14 01:28:07;;;;;;;;;;;;;;;24.77;24.47;98625.13;5067297;28;20332;-88
2023/05/14 01:30:35;;;;;;;;;;;;;;;24.72;24.56;98628.38;5076791;28;19952;-88
2023/05/14 01:33:02;;;;;;;;;;;;;;;25.49;23.78;98622.69;5048109;28;20291;-88
2023/05/14 01:35:29;;;;;;;;;;;;;;;23.92;25.94;98625.50;5074409;28;19927;-88
2023/05/14 01:37:56;;;;;;;;;;;;;;;23.55;26.59;98631.16;5073465;28;19967;-88
2023/05/14 01:40:22;;;;;;;;;;;;;;;23.88;26.09;98622.75;5065981;28;20479;-88
2023/05/14 01:42:49;;;;;;;;;;;;;;;;;;5067405;28;19921;-88
2023/05/14 01:45:16;;;;;;;;;;;;;;;23.75;26.17;98618.91;5074644;28;19920;-87
2023/05/14 01:47:42;;;;;;;;;;;;;;;23.70;26.12;98618.56;5052302;28;19928;-87
2023/05/14 01:50:08;;;;;;;;;;;;;;;23.37;26.29;98622.94;5068694;28;19924;-87
2023/05/14 01:52:34;;;;;;;;;;;;;;;23.64;26.19;98617.44;5049372;28;19920;-88
2023/05/14 01:55:00;;;;;;;;;;;;;;;23.46;26.42;98612.03;5071628;28;20019;-88
2023/05/14 01:57:26;;;;;;;;;;;;;;;23.01;27.25;98618.88;5084684;28;19978;-88
2023/05/14 01:59:52;;;;;;;;;;;;;;;23.08;27.08;98613.97;5063327;28;20019;-87
2023/05/14 02:02:18;;;;;;;;;;;;;;;22.64;27.55;98606.34;5073689;28;19944;-88
2023/05/14 02:04:44;;;;;;;;;;;;;;;22.78;27.69;98601.88;5068901;28;19935;-88
2023/05/14 02:07:10;;;;;;;;;;;;;;;22.52;27.82;98597.66;5078392;28;19928;-88
2023/05/14 02:09:36;;;;;;;;;;;;;;;22.88;27.28;98601.78;5078752;28;19927;-88
2023/05/14 02:12:02;;;;;;;;;;;;;;;23.70;26.01;98596.13;5054732;28;20015;-88
2023/05/14 02:14:28;;;;;;;;;;;;;;;21.98;28.26;98601.97;5046558;28;20016;-87
2023/05/14 02:16:55;;;;;;;;;;;;;;;21.44;29.49;98595.00;5056219;28;20284;-88
2023/05/14 02:19:21;;;;;;;;;;;;;;;21.95;28.89;98603.59;5069108;28;19975;-88
2023/05/14 02:21:47;;;;;;;;;;;;;;;22.31;28.14;98606.19;5082912;28;19921;-88
2023/05/14 02:24:13;;;;;;;;;;;;;;;22.72;27.23;98598.72;5059170;28;19927;-88
2023/05/14 02:26:39;;;;;;;;;;;;;;;22.55;27.60;98591.22;5068507;28;19924;-87
2023/05/14 02:29:05;;;;;;;;;;;;;;;22.56;27.78;98578.81;5075123;28;19927;-87
2023/05/14 02:31:31;;;;;;;;;;;;;;;22.73;27.65;98577.13;5086153;28;19920;-88
2023/05/14 02:33:57;;;;;;;;;;;;;;;23.15;26.90;98568.31;5078732;28;20399;-88
2023/05/14 02:36:23;;;;;;;;;;;;;;;23.28;26.30;98574.97;5080890;28;19920;-88
2023/05/14 02:38:49;;;;;;;;;;;;;;;23.54;26.28;98563.09;5069603;28;19946;-88
2023/05/14 02:41:15;;;;;;;;;;;;;;;23.72;25.52;98574.06;5078728;28;19943;-88
2023/05/14 02:43:41;;;;;;;;;;;;;;;23.96;25.59;98562.53;5077431;28;20384;-88
2023/05/14 02:46:07;;;;;;;;;;;;;;;24.27;25.25;98559.72;5082789;28;19986;-89
2023/05/14 02:48:33;;;;;;;;;;;;;;;24.54;24.73;98557.69;5073244;28;19920;-88
2023/05/14 02:50:59;;;;;;;;;;;;;;;24.80;24.25;98548.44;5072459;28;19959;-89
2023/05/14 02:53:25;;;;;;;;;;;;;;;24.77;24.24;98551.31;5068692;28;19970;-88
2023/05/14 02:55:51;;;;;;;;;;;;;;;24.58;24.18;98553.59;5070935;28;19920;-88
2023/05/14 02:58:18;;;;;;;;;;;;;;;24.40;24.44;98563.53;5085480;28;19928;-88
2023/05/14 03:00:44;;;;;;;;;;;;;;;24.59;24.62;98560.81;5086492;28;19960;-88
2023/05/14 03:03:10;;;;;;;;;;;;;;;23.98;25.39;98557.31;5065220;28;19979;-88
2023/05/14 03:05:36;;;;;;;;;;;;;;;23.63;25.48;98554.16;5059298;28;20439;-88
2023/05/14 03:08:02;;;;;;;;;;;;;;;23.27;26.63;98557.34;5072435;28;20387;-88
2023/05/14 03:10:28;;;;;;;;;;;;;;;23.27;26.40;98551.75;5059989;28;19924;-88
2023/05/14 03:12:54;;;;;;;;;;;;;;;23.76;25.51;98556.00;5087688;28;19966;-88
2023/05/14 03:15:20;;;;;;;;;;;;;;;24.40;25.06;98546.69;5074971;28;19999;-88
2023/05/14 03:17:46;;;;;;;;;;;;;;;24.46;24.63;98557.00;5080374;28;19974;-88
2023/05/14 03:20:12;;;;;;;;;;;;;;;24.38;24.56;98558.34;5085328;28;19924;-88
2023/05/14 03:22:38;;;;;;;;;;;;;;;24.73;24.05;98554.97;5070822;28;19925;-88
2023/05/14 03:25:04;;;;;;;;;;;;;;;24.98;23.71;98562.19;5072649;28;20271;-88
2023/05/14 03:27:30;;;;;;;;;;;;;;;24.87;23.87;98570.00;5074559;28;19932;-88
2023/05/14 03:29:56;;;;;;;;;;;;;;;23.76;25.54;98563.59;5072005;28;19921;-87
2023/05/14 03:32:22;;;;;;;;;;;;;;;22.66;27.40;98575.94;5069916;28;19925;-87
2023/05/14 03:34:48;;;;;;;;;;;;;;;23.02;27.26;98567.22;5083493;28;19931;-87
2023/05/14 03:37:14;;;;;;;;;;;;;;;23.33;26.85;98568.91;5051112;28;19928;-88
2023/05/14 03:39:40;;;;;;;;;;;;;;;23.50;26.48;98572.75;5065171;28;19924;-87
2023/05/14 03:42:06;;;;;;;;;;;;;;;23.31;26.98;98566.50;5065732;28;19925;-88
2023/05/14 03:44:32;;;;;;;;;;;;;;;23.31;27.14;98560.91;5066092;28;19972;-88
2023/05/14 03:46:58;;;;;;;;;;;;;;;23.81;26.47;98560.34;5085508;28;19924;-87
2023/05/14 03:49:24;;;;;;;;;;;;;;;24.00;26.28;98552.06;5091321;28;19920;-88
2023/05/14 03:51:50;;;;;;;;;;;;;;;24.66;25.56;98549.47;5062175;28;19974;-89
2023/05/14 03:54:16;;;;;;;;;;;;;;;24.63;25.77;98543.91;5047976;28;20352;-88
2023/05/14 03:56:42;;;;;;;;;;;;;;;25.33;25.26;98545.44;5083650;28;20014;-89
2023/05/14 03:59:09;;;;;;;;;;;;;;;25.28;25.36;98539.53;5082873;28;19920;-88
2023/05/14 04:01:35;;;;;;;;;;;;;;;25.68;25.14;98538.34;5072816;28;19920;-88
2023/05/14 04:04:01;;;;;;;;;;;;;;;26.44;24.21;98548.28;5070335;28;19973;-88
2023/05/14 04:06:27;;;;;;;;;;;;;;;26.36;24.89;98540.44;5079582;28;19924;-88
2023/05/14 04:08:53;;;;;;;;;;;;;;;26.57;23.96;98535.09;5076324;28;20380;-88
2023/05/14 04:11:20;;;;;;;;;;;;;;;26.05;24.65;98546.34;5070027;28;19920;-88
2023/05/14 04:13:46;;;;;;;;;;;;;;;25.81;25.41;98544.09;5067982;28;19929;-88
2023/05/14 04:16:12;;;;;;;;;;;;;;;26.04;25.37;98541.94;5074071;28;19916;-88
2023/05/14 04:18:38;;;;;;;;;;;;;;;25.84;24.89;98541.19;5077013;28;19924;-88
2023/05/14 04:21:04;;;;;;;;;;;;;;;26.11;25.31;98546.69;5076310;28;20402;-88
2023/05/14 04:23:30;;;;;;;;;;;;;;;26.27;25.81;98549.50;5075226;28;20368;-87
2023/05/14 04:25:57;;;;;;;;;;;;;;;27.13;24.17;98546.16;5075375;28;19925;-87
2023/05/14 04:28:23;;;;;;;;;;;;;;;27.24;24.14;98539.00;5066711;28;19960;-89
2023/05/14 04:30:49;;;;;;;;;;;;;;;26.96;24.89;98542.56;5075095;28;20407;-89
2023/05/14 04:33:15;;;;;;;;;;;;;;;27.13;24.71;98540.53;5074566;28;19927;-89
2023/05/14 04:35:42;;;;;;;;;;;;;;;26.79;24.42;98531.78;5082852;28;20371;-89
2023/05/14 04:38:10;;;;;;;;;;;;;;;26.93;24.83;98537.84;5063368;28;19931;-89
2023/05/14 04:40:36;;;;;;;;;;;;;;;27.09;24.54;98542.66;5059581;28;19928;-89
2023/05/14 04:43:02;;;;;;;;;;;;;;;27.31;23.74;98538.00;5070268;28;19924;-89
2023/05/14 04:45:28;;;;;;;;;;;;;;;27.50;24.11;98547.56;5065133;28;19924;-89
2023/05/14 04:47:54;;;;;;;;;;;;;;;27.36;24.27;98552.34;5074244;28;19990;-88
2023/05/14 04:50:20;;;;;;;;;;;;;;;26.55;24.57;98553.66;5070871;28;19921;-89
2023/05/14 04:52:46;;;;;;;;;;;;;;;26.22;25.97;98547.22;5070326;28;19924;-88
2023/05/14 04:55:12;;;;;;;;;;;;;;;27.25;24.07;98540.59;5066056;28;19970;-89
2023/05/14 04:57:38;;;;;;;;;;;;;;;27.20;24.24;98538.31;5058773;28;20315;-89
2023/05/14 05:00:05;;;;;;;;;;;;;;;27.57;24.56;98542.53;5068681;28;19932;-89
2023/05/14 05:02:31;;;;;;;;;;;;;;;27.93;24.92;98545.09;5037291;28;19932;-89
2023/05/14 05:04:57;;;;;;;;;;;;;;;28.57;22.72;98544.69;5055752;28;19966;-89
2023/05/14 05:07:23;;;;;;;;;;;;;;;28.43;22.91;98541.53;5058562;28;19924;-89
2023/05/14 05:09:49;;;;;;;;;;;;;;;27.48;24.24;98539.56;5073545;28;19926;-88
2023/05/14 05:12:15;;;;;;;;;;;;;;;27.77;23.69;98539.53;5065649;28;19928;-89
2023/05/14 05:14:41;;;;;;;;;;;;;;;27.59;25.06;98537.22;5066025;28;20010;-90
2023/05/14 05:17:07;;;;;;;;;;;;;;;27.59;25.49;98542.06;5068775;28;19959;-90
2023/05/14 05:19:33;;;;;;;;;;;;;;;28.08;23.88;98544.25;5064377;28;19921;-91
2023/05/14 05:21:59;;;;;;;;;;;;;;;27.39;24.25;98540.22;5066213;28;20303;-89
2023/05/14 05:24:25;;;;;;;;;;;;;;;27.82;25.67;98531.28;5067601;28;20019;-89
2023/05/14 05:26:52;;;;;;;;;;;;;;;28.52;24.62;98531.13;5068820;28;19925;-87
2023/05/14 05:29:18;;;;;;;;;;;;;;;29.06;23.44;98518.81;5065895;28;19974;-88
2023/05/14 05:31:45;;;;;;;;;;;;;;;28.11;24.77;98522.00;5072502;28;19924;-88
2023/05/14 05:34:11;;;;;;;;;;;;;;;28.09;24.29;98525.28;5069412;28;19924;-88
2023/05/14 05:36:37;;;;;;;;;;;;;;;28.51;23.87;98520.28;5068434;28;20003;-89
2023/05/14 05:39:03;;;;;;;;;;;;;;;28.07;25.28;98522.13;5063851;28;20023;-88
2023/05/14 05:41:29;;;;;;;;;;;;;;;28.43;24.00;98521.75;5072714;28;19917;-88
2023/05/14 05:43:55;;;;;;;;;;;;;;;27.94;24.11;98526.91;5062833;28;19935;-88
2023/05/14 05:46:21;;;;;;;;;;;;;;;27.86;25.47;98520.72;5055592;28;19921;-89
2023/05/14 05:48:47;;;;;;;;;;;;;;;27.85;25.94;98527.59;5048098;28;19929;-89
2023/05/14 05:51:13;;;;;;;;;;;;;;;28.54;24.85;98519.38;5055483;28;19944;-88
2023/05/14 05:53:39;;;;;;;;;;;;;;;28.80;23.90;98506.81;5048926;28;20460;-87
2023/05/14 05:56:05;;;;;;;;;;;;;;;29.04;22.37;98515.66;5066276;28;19939;-88
2023/05/14 05:58:31;;;;;;;;;;;;;;;29.11;22.50;98509.75;5070562;28;19916;-89
2023/05/14 06:00:58;;;;;;;;;;;;;;;29.51;22.04;98507.13;5068511;28;19929;-89
2023/05/14 06:03:33;;;;;;;;;;;;;;;28.49;22.50;98508.66;5073952;28;19920;-89
2023/05/14 06:05:59;;;;;;;;;;;;;;;28.95;22.14;98501.44;5071591;28;19920;-88
2023/05/14 06:08:25;;;;;;;;;;;;;;;29.51;22.38;98496.59;5067412;28;19921;-89
2023/05/14 06:10:51;;;;;;;;;;;;;;;29.73;22.69;98505.88;5068505;28;19916;-88
2023/05/14 06:13:17;;;;;;;;;;;;;;;30.10;21.89;98501.22;5076189;28;19932;-89
2023/05/14 06:15:43;;;;;;;;;;;;;;;29.89;21.35;98502.84;5074734;28;19928;-89
2023/05/14 06:18:09;;;;;;;;;;;;;;;29.88;21.93;98512.59;5054760;28;19928;-88
2023/05/14 06:20:35;;;;;;;;;;;;;;;29.88;22.27;98506.13;5062880;28;19924;-88
2023/05/14 06:23:01;;;;;;;;;;;;;;;30.43;21.89;98508.00;5060765;28;19936;-88
2023/05/14 06:25:27;;;;;;;;;;;;;;;30.82;20.32;98503.50;5066829;28;19932;-88
2023/05/14 06:27:53;;;;;;;;;;;;;;;30.84;21.60;98498.16;5076539;28;20296;-87
2023/05/14 06:30:19;;;;;;;;;;;;;;;31.05;21.20;98497.25;5076593;28;19920;-87
2023/05/14 06:32:45;;;;;;;;;;;;;;;30.89;21.72;98496.75;5067545;28;19931;-87
2023/05/14 06:35:11;;;;;;;;;;;;;;;30.65;21.31;98491.66;5072665;28;20011;-87
2023/05/14 06:37:37;;;;;;;;;;;;;;;30.10;21.99;98495.53;5073451;28;19920;-88
2023/05/14 06:40:04;;;;;;;;;;;;;;;30.69;20.46;98494.34;5073109;28;20426;-87
2023/05/14 06:42:30;;;;;;;;;;;;;;;28.10;23.72;98495.00;5068962;28;19928;-88
2023/05/14 06:44:56;;;;;;;;;;;;;;;28.79;23.73;98482.63;5063940;28;19920;-86
2023/05/14 06:47:22;;;;;;;;;;;;;;;29.72;21.67;98486.50;5043587;28;19924;-86
2023/05/14 06:49:48;;;;;;;;;;;;;;;29.34;23.08;98483.88;5068967;28;19924;-86
2023/05/14 06:52:14;;;;;;;;;;;;;;;29.88;22.00;98478.59;5070372;28;19924;-86
2023/05/14 06:54:40;;;;;;;;;;;;;;;29.09;22.51;98481.94;5071872;28;19921;-85
2023/05/14 06:57:12;;;;;;;;;;;;;;;29.16;23.37;98481.69;5064051;28;20493;-86
2023/05/14 06:59:38;;;;;;;;;;;;;;;29.16;22.40;98490.19;5070652;28;19931;-86
2023/05/14 07:02:04;;;;;;;;;;;;;;;29.47;22.62;98484.63;5068554;28;20328;-84
2023/05/14 07:04:30;;;;;;;;;;;;;;;29.23;22.13;98489.16;5075440;28;19952;-84
2023/05/14 07:06:56;;;;;;;;;;;;;;;29.73;22.73;98494.56;5074258;28;20018;-85
2023/05/14 07:09:22;;;;;;;;;;;;;;;30.23;23.05;98492.59;5072410;28;19920;-85
2023/05/14 07:11:48;;;;;;;;;;;;;;;29.00;22.49;98490.34;5076294;28;19916;-85
2023/05/14 07:14:14;;;;;;;;;;;;;;;29.38;23.12;98490.22;5055594;28;20380;-85
2023/05/14 07:16:41;;;;;;;;;;;;;;;30.43;22.04;98491.00;5071037;28;19924;-85
2023/05/14 07:19:07;;;;;;;;;;;;;;;30.88;21.75;98495.19;5067180;28;19923;-85
2023/05/14 07:21:34;;;;;;;;;;;;;;;31.44;21.62;98504.03;5070433;28;19920;-85
2023/05/14 07:24:00;;;;;;;;;;;;;;;32.15;19.93;98500.75;5071469;28;20363;-84
2023/05/14 07:26:26;;;;;;;;;;;;;;;32.32;19.28;98499.13;5066393;28;19929;-85
2023/05/14 07:28:52;;;;;;;;;;;;;;;32.49;19.16;98500.28;5069886;28;19920;-85
2023/05/14 07:31:18;;;;;;;;;;;;;;;31.57;19.70;98498.22;5071944;28;20014;-87
2023/05/14 07:33:44;;;;;;;;;;;;;;;31.29;21.19;98495.38;5068313;28;19920;-85
2023/05/14 07:36:10;;;;;;;;;;;;;;;30.62;21.70;98494.66;5071413;28;19928;-85
2023/05/14 07:38:36;;;;;;;;;;;;;;;29.90;21.80;98493.09;5072136;28;19966;-85
2023/05/14 07:41:02;;;;;;;;;;;;;;;31.07;20.47;98488.25;5071067;28;19920;-86
2023/05/14 07:43:28;;;;;;;;;;;;;;;29.14;23.34;98481.38;5067023;28;19978;-84
2023/05/14 07:45:55;;;;;;;;;;;;;;;28.77;24.04;98485.13;5073492;28;20358;-85
2023/05/14 07:48:21;;;;;;;;;;;;;;;28.89;22.66;98475.81;5072270;28;19921;-86
2023/05/14 07:50:48;;;;;;;;;;;;;;;29.97;21.88;98469.34;5056400;28;19925;-85
2023/05/14 07:53:14;;;;;;;;;;;;;;;31.13;21.59;98458.81;5072362;28;19927;-84
2023/05/14 07:55:40;;;;;;;;;;;;;;;30.36;22.63;98468.63;5068065;28;19920;-85
2023/05/14 07:58:06;;;;;;;;;;;;;;;30.64;21.42;98467.38;5062219;28;19983;-85
2023/05/14 08:00:33;;;;;;;;;;;;;;;30.98;21.79;98460.69;5044141;28;19921;-85
2023/05/14 08:02:59;;;;;;;;;;;;;;;31.72;20.66;98465.03;5055071;28;19921;-84
2023/05/14 08:05:25;;;;;;;;;;;;;;;32.27;19.26;98466.47;5045488;28;19947;-84
2023/05/14 08:07:51;;;;;;;;;;;;;;;32.06;20.01;98459.75;5069181;28;20019;-84
2023/05/14 08:10:17;;;;;;;;;;;;;;;31.43;19.81;98454.22;5068239;28;20014;-84
2023/05/14 08:12:43;;;;;;;;;;;;;;;31.12;20.42;98456.44;5054288;28;20371;-84
2023/05/14 08:15:09;;;;;;;;;;;;;;;30.77;19.86;98450.25;5056270;28;19975;-83
2023/05/14 08:17:35;;;;;;;;;;;;;;;30.56;21.13;98445.50;5061526;28;19967;-84
2023/05/14 08:20:02;;;;;;;;;;;;;;;30.06;21.35;98443.91;5058118;28;19951;-84
2023/05/14 08:22:28;;;;;;;;;;;;;;;30.00;21.72;98438.06;5064515;28;19924;-84
2023/05/14 08:24:54;;;;;;;;;;;;;;;31.28;21.07;98433.41;5057636;28;19970;-87
2023/05/14 08:27:20;;;;;;;;;;;;;;;32.23;20.89;98437.41;5069893;28;19924;-89
2023/05/14 08:29:46;;;;;;;;;;;;;;;32.06;20.10;98433.41;5072038;28;19932;-87
2023/05/14 08:32:12;;;;;;;;;;;;;;;32.24;19.97;98430.47;5060649;28;19958;-85
2023/05/14 08:34:38;;;;;;;;;;;;;;;31.49;20.70;98431.66;5066958;28;19924;-85
2023/05/14 08:37:04;;;;;;;;;;;;;;;31.01;21.88;98422.88;5068606;28;19932;-85
2023/05/14 08:39:33;;;;;;;;;;;;;;;30.24;21.25;98427.00;5060753;28;19920;-85
2023/05/14 08:42:05;;;;;;;;;;;;;;;30.57;22.04;98421.56;5060252;28;20441;-85
2023/05/14 08:44:31;;;;;;;;;;;;;;;29.78;23.05;98425.25;5041305;28;20314;-86
2023/05/14 08:46:57;;;;;;;;;;;;;;;29.71;23.51;98431.94;5051944;28;19928;-86
2023/05/14 08:49:36;;;;;;;;;;;;;;;29.76;22.22;98425.69;5038254;28;19932;-82
2023/05/14 08:52:02;;;;;;;;;;;;;;;30.58;22.80;98426.75;5046427;28;19921;-85
2023/05/14 08:54:28;;;;;;;;;;;;;;;31.73;21.26;98421.97;5037894;28;20483;-87
2023/05/14 08:56:54;;;;;;;;;;;;;;;31.05;23.19;98420.66;5017609;28;19929;-87
2023/05/14 08:59:20;;;;;;;;;;;;;;;29.84;23.19;98421.34;5040922;28;19927;-85
2023/05/14 09:01:47;;;;;;;;;;;;;;;31.37;22.40;98417.16;5053279;28;20376;-85
2023/05/14 09:04:18;;;;;;;;;;;;;;;29.58;23.40;98414.25;5038546;28;20273;-84
2023/05/14 09:06:47;;;;;;;;;;;;;;;29.92;21.79;98416.19;5038209;28;19925;-84
2023/05/14 09:09:13;;;;;;;;;;;;;;;29.43;23.02;98404.72;5053501;28;20384;-84
2023/05/14 09:11:46;;;;;;;;;;;;;;;31.17;22.07;98410.41;5053547;28;20280;-84
2023/05/14 09:14:12;;;;;;;;;;;;;;;31.66;20.83;98396.78;5036634;28;19953;-84
2023/05/14 09:16:38;;;;;;;;;;;;;;;29.39;24.45;98398.44;5045668;28;19921;-88
2023/05/14 09:19:05;;;;;;;;;;;;;;;31.18;21.18;98401.41;5043740;28;20403;-85
2023/05/14 09:21:32;;;;;;;;;;;;;;;31.69;20.41;98392.97;5033939;28;19951;-85
2023/05/14 09:23:58;;;;;;;;;;;;;;;31.81;21.46;98389.13;5041375;28;19925;-85
2023/05/14 09:26:25;;;;;;;;;;;;;;;31.60;21.37;98389.38;5041215;28;19925;-84
2023/05/14 09:28:55;;;;;;;;;;;;;;;31.98;22.29;98387.50;5036861;28;19921;-84
2023/05/14 09:31:21;;;;;;;;;;;;;;;29.23;24.25;98384.50;5040117;28;19954;-84
2023/05/14 09:33:50;;;;;;;;;;;;;;;29.89;22.69;98375.44;5041729;28;19921;-84
2023/05/14 09:36:17;;;;;;;;;;;;;;;29.15;25.40;98378.28;5040407;28;19921;-85
2023/05/14 09:38:44;;;;;;;;;;;;;;;28.59;25.64;98377.56;5046222;28;20016;-86
2023/05/14 09:41:12;;;;;;;;;;;;;;;28.77;24.03;98377.72;5045917;28;20206;-87
2023/05/14 09:43:37;;;;;;;;;;;;;;;29.04;24.69;98380.75;5049939;28;20007;-86
2023/05/14 09:46:04;;;;;;;;;;;;;;;29.07;23.28;98379.81;5041703;28;20452;-86
2023/05/14 09:48:30;;;;;;;;;;;;;;;28.85;24.41;98369.75;5046805;28;19927;-86
2023/05/14 09:50:56;;;;;;;;;;;;;;;28.48;25.33;98374.28;5051253;28;20007;-86
2023/05/14 09:53:22;;;;;;;;;;;;;;;28.34;25.69;98364.28;5052200;28;19928;-86
2023/05/14 09:55:48;;;;;;;;;;;;;;;28.42;23.90;98368.44;5047101;28;19940;-86
2023/05/14 09:58:14;;;;;;;;;;;;;;;28.68;25.01;98366.34;5050232;28;20436;-85
2023/05/14 10:00:44;;;;;;;;;;;;;;;29.58;23.26;98368.97;5049393;28;19921;-85
2023/05/14 10:03:12;;;;;;;;;;;;;;;31.46;22.51;98356.75;5026461;28;20403;-85
2023/05/14 10:05:39;;;;;;;;;;;;;;;32.26;20.58;98351.19;5046486;28;19925;-85
2023/05/14 10:08:14;;;;;;;;;;;;;;;32.23;21.76;98346.47;5048942;28;19925;-85
2023/05/14 10:10:40;;;;;;;;;;;;;;;30.55;23.77;98351.16;5042160;28;20347;-86
2023/05/14 10:13:12;;;;;;;;;;;;;;;29.48;24.32;98347.53;5038107;28;20332;-84
2023/05/14 10:15:43;;;;;;;;;;;;;;;28.62;26.62;98339.91;5034581;28;20254;-86
2023/05/14 10:18:11;;;;;;;;;;;;;;;28.74;25.45;98339.88;5052957;28;19927;-85
2023/05/14 10:20:38;;;;;;;;;;;;;;;30.19;24.45;98327.66;5066732;28;20288;-85
2023/05/14 10:23:06;;;;;;;;;;;;;;;29.48;25.26;98324.16;5047009;28;19927;-84
2023/05/14 10:25:33;;;;;;;;;;;;;;;29.83;24.00;98322.69;5034621;28;19957;-84
2023/05/14 10:27:59;;;;;;;;;;;;;;;30.76;22.82;98312.56;5038434;28;19971;-85
2023/05/14 10:30:25;;;;;;;;;;;;;;;31.73;22.76;98302.72;5055803;28;19964;-87
2023/05/14 10:33:04;;;;;;;;;;;;;;;32.53;21.22;98302.72;5049936;28;19963;-91
2023/05/14 10:35:49;;;;;;;;;;;;;;;31.42;23.67;98297.34;5044575;28;19924;-92
2023/05/14 10:38:15;;;;;;;;;;;;;;;32.33;21.01;98293.19;5024242;28;19929;-90
2023/05/14 10:40:41;;;;;;;;;;;;;;;31.27;22.00;98301.31;5042918;28;19921;-89
2023/05/14 10:43:08;;;;;;;;;;;;;;;31.33;22.23;98285.22;5042944;28;20022;-88
2023/05/14 10:45:34;;;;;;;;;;;;;;;32.42;21.28;98281.75;5048668;28;19986;-91
2023/05/14 10:48:01;;;;;;;;;;;;;;;31.91;21.96;98279.88;5065752;28;20402;-94
2023/05/14 10:50:27;;;;;;;;;;;;;;;31.70;20.93;98280.97;5066390;28;19921;-88
2023/05/14 10:52:54;;;;;;;;;;;;;;;31.32;22.20;98267.38;5062932;28;19975;-87
2023/05/14 10:55:20;;;;;;;;;;;;;;;32.38;21.62;98264.88;5043807;28;19973;-88
2023/05/14 10:57:47;;;;;;;;;;;;;;;31.23;22.56;98261.75;5070051;28;19935;-87
2023/05/14 11:00:13;;;;;;;;;;;;;;;31.28;22.17;98260.31;5070100;28;19921;-88
2023/05/14 11:02:41;;;;;;;;;;;;;;;32.08;20.46;98252.66;5074999;28;19921;-87
2023/05/14 11:05:09;;;;;;;;;;;;;;;32.54;20.94;98255.94;5068034;28;19927;-88
2023/05/14 11:07:55;;;;;;;;;;;;;;;31.22;21.68;98250.91;5054365;28;19925;-88
2023/05/14 11:10:22;;;;;;;;;;;;;;;30.82;23.67;98241.84;5065701;28;19981;-86
2023/05/14 11:12:49;;;;;;;;;;;;;;;30.03;24.51;98238.94;5060579;28;20457;-87
2023/05/14 11:15:22;;;;;;;;;;;;;;;31.30;21.26;98235.88;5051309;28;23610;-87
2023/05/14 11:17:49;;;;;;;;;;;;;;;29.98;22.53;98233.09;5064330;28;20023;-86
2023/05/14 11:20:16;;;;;;;;;;;;;;;30.50;23.99;98234.84;5060064;28;19920;-87
2023/05/14 11:22:42;;;;;;;;;;;;;;;30.41;23.04;98232.78;5064142;28;19926;-87
2023/05/14 11:25:09;;;;;;;;;;;;;;;32.14;20.82;98232.88;5056986;28;20008;-87
2023/05/14 11:27:36;;;;;;;;;;;;;;;31.36;20.33;98241.69;5060179;28;19920;-87
2023/05/14 11:30:02;;;;;;;;;;;;;;;31.54;22.56;98235.94;5046893;28;19960;-89
2023/05/14 11:32:30;;;;;;;;;;;;;;;29.95;23.01;98240.47;5062111;28;19929;-87
2023/05/14 11:34:56;;;;;;;;;;;;;;;30.47;24.18;98228.06;5064287;28;20269;-89
2023/05/14 11:37:23;;;;;;;;;;;;;;;31.27;22.56;98230.38;5059490;28;19925;-89
2023/05/14 11:39:50;;;;;;;;;;;;;;;31.62;23.25;98227.88;5068798;28;19930;-89
2023/05/14 11:42:18;;;;;;;;;;;;;;;30.54;23.10;98227.75;5064638;28;19925;-90
2023/05/14 11:44:48;;;;;;;;;;;;;;;32.39;20.53;98218.16;5071363;28;19950;-91
2023/05/14 11:47:14;;;;;;;;;;;;;;;33.14;19.79;98226.25;5079446;28;19928;-90
2023/05/14 11:49:41;;;;;;;;;;;;;;;33.49;18.85;98221.38;5072112;28;19920;-90
2023/05/14 11:52:12;;;;;;;;;;;;;;;33.18;20.00;98215.44;5071287;28;19920;-89
2023/05/14 11:54:39;;;;;;;;;;;;;;;32.77;20.84;98216.53;5068216;28;20078;-89
2023/05/14 11:57:09;;;;;;;;;;;;;;;33.58;20.12;98220.47;5070413;28;19923;-90
2023/05/14 11:59:36;;;;;;;;;;;;;;;31.66;22.05;98208.59;5059676;28;19916;-90
2023/05/14 12:02:04;;;;;;;;;;;;;;;32.09;21.75;98205.94;5046521;28;19943;-90
2023/05/14 12:04:30;;;;;;;;;;;;;;;32.83;22.31;98203.97;5069648;28;19931;-90
2023/05/14 12:06:57;;;;;;;;;;;;;;;33.11;19.91;98193.09;5063945;28;19920;-90
2023/05/14 12:09:23;;;;;;;;;;;;;;;33.35;19.61;98179.50;5068915;28;19927;-89
2023/05/14 12:11:50;;;;;;;;;;;;;;;34.28;19.14;98181.25;5066843;28;20037;-91
2023/05/14 12:14:20;;;;;;;;;;;;;;;34.46;19.73;98183.75;5072989;28;20039;-90
2023/05/14 12:16:47;;;;;;;;;;;;;;;34.28;19.40;98181.25;5065199;28;19917;-87
2023/05/14 12:19:14;;;;;;;;;;;;;;;34.27;18.11;98171.09;5066611;28;19947;-91
2023/05/14 12:21:41;;;;;;;;;;;;;;;34.66;19.71;98170.25;5061320;28;19917;-89
2023/05/14 12:24:11;;;;;;;;;;;;;;;34.69;19.70;98172.09;5063296;28;19947;-85
2023/05/14 12:26:40;;;;;;;;;;;;;;;34.66;18.94;98170.25;5066295;28;19935;-86
2023/05/14 12:29:06;;;;;;;;;;;;;;;34.20;19.15;98163.00;5064285;28;20014;-87
2023/05/14 12:31:33;;;;;;;;;;;;;;;33.93;18.78;98155.69;5065833;28;19971;-88
2023/05/14 12:33:59;;;;;;;;;;;;;;;34.49;18.72;98149.31;5080927;28;20445;-89
2023/05/14 12:36:25;;;;;;;;;;;;;;;34.83;19.02;98147.56;5062153;28;19970;-86
2023/05/14 12:38:59;;;;;;;;;;;;;;;34.69;18.85;98140.72;5064193;28;20019;-87
2023/05/14 12:41:32;;;;;;;;;;;;;;;34.03;21.14;98137.16;5063722;28;19959;-86
2023/05/14 12:43:58;;;;;;;;;;;;;;;31.85;20.62;98142.69;5056652;28;20305;-86
2023/05/14 12:46:26;;;;;;;;;;;;;;;31.18;23.14;98122.63;5068790;28;19921;-85